Time;durP1;ratioP1;P1;durP2;ratioP2;P2;SDS_P1;SDS_P2;PMS_P1;PMS_P2;Temp;Humidity;BMP_temperature;BMP_pressure;BME280_temperature;BME280_humidity;BME280_pressure;Samples;Min_cycle;Max_cycle;Signal;HPM_P1;HPM_P2
2021/04/28 00:01:53;;;;;;;7.10;3.13;;;7.40;47.20;;;;;;3531514;40;20027;-63
2021/04/28 00:04:19;;;;;;;5.53;3.17;;;7.30;46.90;;;;;;3532459;40;20508;-64
2021/04/28 00:06:49;;;;;;;6.32;3.10;;;7.30;47.10;;;;;;3535211;40;20019;-65
2021/04/28 00:09:15;;;;;;;5.22;2.90;;;7.40;47.30;;;;;;3537117;40;20087;-64
2021/04/28 00:11:40;;;;;;;9.45;3.53;;;7.40;47.10;;;;;;3534515;40;20196;-64
2021/04/28 00:14:08;;;;;;;6.25;3.42;;;7.30;46.60;;;;;;3534985;40;20048;-64
2021/04/28 00:16:34;;;;;;;5.25;3.00;;;7.30;47.00;;;;;;3533013;40;20089;-64
2021/04/28 00:19:01;;;;;;;4.95;3.20;;;7.30;47.10;;;;;;3530749;40;20027;-65
2021/04/28 00:21:29;;;;;;;4.93;3.05;;;7.30;47.00;;;;;;3535848;40;20026;-65
2021/04/28 00:23:55;;;;;;;8.00;3.70;;;7.20;47.10;;;;;;3535775;40;20046;-65
2021/04/28 00:26:21;;;;;;;9.23;3.65;;;7.20;47.20;;;;;;3533345;40;20046;-64
2021/04/28 00:28:47;;;;;;;5.25;3.28;;;7.20;47.30;;;;;;3530379;40;20027;-66
2021/04/28 00:31:13;;;;;;;5.90;3.70;;;7.20;47.50;;;;;;3528080;40;20097;-64
2021/04/28 00:33:39;;;;;;;5.85;3.20;;;7.10;47.60;;;;;;3528575;40;20031;-65
2021/04/28 00:36:11;;;;;;;8.27;3.65;;;7.10;48.20;;;;;;3531599;40;20172;-64
2021/04/28 00:38:37;;;;;;;8.93;3.50;;;7.10;47.40;;;;;;3533811;40;20091;-64
2021/04/28 00:41:09;;;;;;;5.05;3.45;;;7.00;47.70;;;;;;3536615;40;20698;-65
2021/04/28 00:43:36;;;;;;;6.35;3.50;;;6.90;47.60;;;;;;3537357;40;20042;-64
2021/04/28 00:46:02;;;;;;;5.68;3.45;;;6.90;48.00;;;;;;3550178;40;20066;-65
2021/04/28 00:48:28;;;;;;;6.80;3.47;;;6.90;48.00;;;;;;3533312;40;20866;-65
2021/04/28 00:50:54;;;;;;;8.13;3.55;;;6.90;48.00;;;;;;3530629;40;20030;-65
2021/04/28 00:53:23;;;;;;;7.82;3.20;;;6.90;47.90;;;;;;3536500;40;20035;-64
2021/04/28 00:55:49;;;;;;;4.40;2.67;;;7.00;47.90;;;;;;3531295;40;20046;-65
2021/04/28 00:58:15;;;;;;;8.23;3.20;;;6.90;47.90;;;;;;3532608;40;20019;-65
2021/04/28 01:00:43;;;;;;;7.10;3.38;;;6.90;48.30;;;;;;3535818;40;20599;-65
2021/04/28 01:03:14;;;;;;;4.90;3.28;;;6.90;48.10;;;;;;3536451;40;20038;-65
2021/04/28 01:05:40;;;;;;;5.45;3.15;;;6.80;48.40;;;;;;3536459;40;20023;-65
2021/04/28 01:08:06;;;;;;;5.45;3.30;;;6.70;48.40;;;;;;3535110;40;20117;-65
2021/04/28 01:10:36;;;;;;;7.47;3.17;;;6.70;48.60;;;;;;3532162;40;20071;-64
2021/04/28 01:13:05;;;;;;;5.97;3.55;;;6.80;48.70;;;;;;3537693;40;20121;-65
2021/04/28 01:15:34;;;;;;;5.53;3.50;;;6.70;48.80;;;;;;3537759;40;20033;-65
2021/04/28 01:18:10;;;;;;;4.63;3.33;;;6.60;49.00;;;;;;3531978;40;20785;-64
2021/04/28 01:20:39;;;;;;;6.28;3.33;;;6.60;49.00;;;;;;3532899;40;20039;-65
2021/04/28 01:23:07;;;;;;;7.72;3.70;;;6.60;48.80;;;;;;3536501;40;20724;-65
2021/04/28 01:25:33;;;;;;;6.22;3.50;;;6.60;49.00;;;;;;3536126;40;20327;-65
2021/04/28 01:28:06;;;;;;;6.90;3.75;;;6.60;49.50;;;;;;3534777;40;20034;-63
2021/04/28 01:30:39;;;;;;;7.05;3.67;;;6.70;49.30;;;;;;3529947;40;20046;-65
2021/04/28 01:33:10;;;;;;;7.03;3.83;;;6.60;49.10;;;;;;3534750;40;20098;-64
2021/04/28 01:35:39;;;;;;;7.25;3.63;;;6.60;49.10;;;;;;3518725;40;20041;-64
2021/04/28 01:38:06;;;;;;;6.45;3.90;;;6.50;49.60;;;;;;3530025;40;20038;-65
2021/04/28 01:40:34;;;;;;;10.75;3.72;;;6.40;49.70;;;;;;3532207;40;20037;-64
2021/04/28 01:43:01;;;;;;;6.15;3.20;;;6.40;49.60;;;;;;3535875;40;20475;-63
2021/04/28 01:45:27;;;;;;;5.47;3.30;;;6.40;50.20;;;;;;3536627;40;20077;-63
2021/04/28 01:47:54;;;;;;;5.65;3.60;;;6.40;49.70;;;;;;3551164;40;20050;-65
2021/04/28 01:50:22;;;;;;;7.18;3.67;;;6.40;49.80;;;;;;3534933;40;20732;-64
2021/04/28 01:52:49;;;;;;;6.15;3.75;;;6.30;49.70;;;;;;3548845;40;20027;-64
2021/04/28 01:55:17;;;;;;;8.30;4.30;;;6.30;49.80;;;;;;3536934;40;20034;-64
2021/04/28 01:58:01;;;;;;;7.55;3.90;;;6.30;49.70;;;;;;3535872;40;20132;-64
2021/04/28 02:00:34;;;;;;;10.48;3.88;;;6.40;49.50;;;;;;3538287;40;20051;-65
2021/04/28 02:03:00;;;;;;;9.27;3.92;;;6.40;49.30;;;;;;3532781;40;20027;-64
2021/04/28 02:05:26;;;;;;;6.50;3.67;;;6.30;49.30;;;;;;3535786;40;20034;-64
2021/04/28 02:07:52;;;;;;;6.68;3.13;;;6.30;49.50;;;;;;3552514;40;20041;-65
2021/04/28 02:10:20;;;;;;;5.35;3.40;;;6.30;49.40;;;;;;3549525;40;20033;-65
2021/04/28 02:12:49;;;;;;;6.55;3.53;;;6.40;49.30;;;;;;3534404;40;20146;-64
2021/04/28 02:15:20;;;;;;;9.98;4.00;;;6.40;49.10;;;;;;3541311;40;20054;-63
2021/04/28 02:17:53;;;;;;;5.40;3.35;;;6.40;49.10;;;;;;3536482;40;20038;-65
2021/04/28 02:20:20;;;;;;;6.35;4.25;;;6.40;49.20;;;;;;3543304;40;20034;-64
2021/04/28 02:23:02;;;;;;;7.30;3.92;;;6.30;49.40;;;;;;3526934;40;20026;-65
2021/04/28 02:25:28;;;;;;;6.93;3.53;;;6.30;49.80;;;;;;3544202;40;20070;-65
2021/04/28 02:28:05;;;;;;;8.98;3.97;;;6.30;49.50;;;;;;3534169;40;20594;-65
2021/04/28 02:30:33;;;;;;;6.97;3.50;;;6.40;49.50;;;;;;3534156;40;20043;-65
2021/04/28 02:33:01;;;;;;;9.85;4.07;;;6.30;49.40;;;;;;3547224;40;20082;-65
2021/04/28 02:35:45;;;;;;;6.63;3.80;;;6.30;49.10;;;;;;3530807;40;20071;-65
2021/04/28 02:38:34;;;;;;;6.57;3.60;;;6.40;49.30;;;;;;3537060;40;20035;-65
2021/04/28 02:41:07;;;;;;;9.75;4.18;;;6.30;49.10;;;;;;3536412;40;20061;-65
2021/04/28 02:43:38;;;;;;;8.13;4.22;;;6.30;49.50;;;;;;3541357;40;20070;-64
2021/04/28 02:46:13;;;;;;;7.13;4.00;;;6.30;49.60;;;;;;3537358;40;20034;-65
2021/04/28 02:48:44;;;;;;;7.75;3.85;;;6.20;49.80;;;;;;3533330;40;20042;-63
2021/04/28 02:51:46;;;;;;;12.98;4.00;;;6.20;49.80;;;;;;3555158;40;20139;-64
2021/04/28 02:54:31;;;;;;;6.75;3.65;;;6.10;50.00;;;;;;3536121;40;20052;-65
2021/04/28 02:56:57;;;;;;;9.60;3.90;;;6.10;50.20;;;;;;3534483;40;20795;-65
2021/04/28 02:59:25;;;;;;;11.57;4.53;;;6.10;50.40;;;;;;3546307;40;20276;-64
2021/04/28 03:01:52;;;;;;;7.32;4.55;;;6.00;50.30;;;;;;3548580;40;20548;-65
2021/04/28 03:04:19;;;;;;;9.98;4.43;;;6.00;50.10;;;;;;3538344;40;20444;-65
2021/04/28 03:07:10;;;;;;;9.23;4.10;;;6.00;50.50;;;;;;3536272;40;20074;-65
2021/04/28 03:09:36;;;;;;;9.65;4.50;;;6.00;50.50;;;;;;3535595;40;20094;-65
2021/04/28 03:12:04;;;;;;;8.70;4.25;;;6.00;50.60;;;;;;3535891;40;20038;-64
2021/04/28 03:14:38;;;;;;;8.30;4.00;;;6.00;50.60;;;;;;3534685;40;20045;-65
2021/04/28 03:17:05;;;;;;;8.98;3.92;;;5.80;51.00;;;;;;3550223;40;20043;-64
2021/04/28 03:19:33;;;;;;;9.43;4.45;;;5.80;50.90;;;;;;3538961;40;20058;-65
2021/04/28 03:21:59;;;;;;;7.07;3.70;;;5.90;50.90;;;;;;3528623;40;20043;-65
2021/04/28 03:24:26;;;;;;;8.50;3.88;;;5.90;50.90;;;;;;3534252;40;20046;-65
2021/04/28 03:26:55;;;;;;;8.38;4.70;;;5.80;51.00;;;;;;3535588;40;20883;-65
2021/04/28 03:29:21;;;;;;;9.20;4.18;;;5.90;51.70;;;;;;3546962;40;20797;-65
2021/04/28 03:31:48;;;;;;;7.38;4.13;;;6.00;50.90;;;;;;3535797;40;20038;-65
2021/04/28 03:34:14;;;;;;;8.60;4.25;;;6.10;50.70;;;;;;3534890;40;20787;-65
2021/04/28 03:36:40;;;;;;;7.85;4.15;;;6.10;50.70;;;;;;3539727;40;20466;-65
2021/04/28 03:39:30;;;;;;;10.18;4.22;;;6.20;50.80;;;;;;3537284;40;20046;-65
2021/04/28 03:41:56;;;;;;;8.82;4.70;;;6.20;50.70;;;;;;3543881;40;20041;-64
2021/04/28 03:44:22;;;;;;;10.70;4.38;;;6.20;51.20;;;;;;3527882;40;20041;-65
2021/04/28 03:46:52;;;;;;;9.05;4.50;;;6.10;51.10;;;;;;3549692;40;20093;-65
2021/04/28 03:49:18;;;;;;;10.68;4.35;;;6.10;51.90;;;;;;3532241;40;20047;-64
2021/04/28 03:51:45;;;;;;;8.50;4.82;;;6.00;51.80;;;;;;3527459;40;20062;-65
2021/04/28 03:54:14;;;;;;;8.70;4.75;;;5.90;51.00;;;;;;3533163;40;20034;-63
2021/04/28 03:56:41;;;;;;;11.88;4.82;;;5.90;51.40;;;;;;3533333;40;20737;-65
2021/04/28 03:59:08;;;;;;;11.85;4.57;;;5.80;51.50;;;;;;3532308;40;20113;-65
2021/04/28 04:01:34;;;;;;;9.27;4.53;;;5.80;51.70;;;;;;3546084;40;20684;-64
2021/04/28 04:04:04;;;;;;;10.55;4.78;;;5.70;52.00;;;;;;3532347;40;20044;-65
2021/04/28 04:06:56;;;;;;;11.95;4.40;;;5.80;52.00;;;;;;3535745;40;20272;-65
2021/04/28 04:09:40;;;;;;;10.63;4.70;;;5.80;52.40;;;;;;3531526;40;20133;-65
2021/04/28 04:12:09;;;;;;;11.15;5.30;;;5.90;52.20;;;;;;3542907;40;20042;-65
2021/04/28 04:14:46;;;;;;;9.02;4.50;;;5.70;51.60;;;;;;3533896;40;20042;-65
2021/04/28 04:17:13;;;;;;;11.18;5.03;;;5.60;52.20;;;;;;3533585;40;20188;-65
2021/04/28 04:19:40;;;;;;;9.02;4.88;;;5.60;52.30;;;;;;3530296;40;20039;-65
2021/04/28 04:22:14;;;;;;;11.32;5.47;;;5.60;52.30;;;;;;3533441;40;20054;-65
2021/04/28 04:24:49;;;;;;;11.00;5.30;;;5.60;53.10;;;;;;3538790;40;20213;-65
2021/04/28 04:27:16;;;;;;;11.77;5.22;;;5.70;52.70;;;;;;3535591;40;20027;-64
2021/04/28 04:30:02;;;;;;;12.30;5.30;;;5.60;52.20;;;;;;3535465;40;20384;-64
2021/04/28 04:33:03;;;;;;;8.35;4.80;;;5.70;52.10;;;;;;3561512;40;20118;-65
2021/04/28 04:35:47;;;;;;;10.25;4.93;;;5.70;52.60;;;;;;3531142;40;20504;-66
2021/04/28 04:38:36;;;;;;;10.63;5.43;;;5.70;52.30;;;;;;3542233;40;20109;-64
2021/04/28 04:41:40;;;;;;;12.73;5.40;;;5.60;52.40;;;;;;3539278;40;20089;-65
2021/04/28 04:44:13;;;;;;;9.93;5.38;;;5.60;52.60;;;;;;3531712;40;20034;-65
2021/04/28 04:46:44;;;;;;;13.93;4.80;;;5.70;52.60;;;;;;3534944;40;20031;-66
2021/04/28 04:49:10;;;;;;;10.43;5.15;;;5.80;52.20;;;;;;3530473;40;20023;-63
2021/04/28 04:51:35;;;;;;;8.43;5.05;;;5.80;52.30;;;;;;3548663;40;20376;-64
2021/04/28 04:54:01;;;;;;;10.82;5.40;;;5.90;52.20;;;;;;3532581;40;20028;-65
2021/04/28 04:56:27;;;;;;;13.15;5.25;;;5.90;52.30;;;;;;3527871;40;20030;-64
2021/04/28 04:58:53;;;;;;;14.07;5.65;;;6.00;51.80;;;;;;3530262;40;20062;-64
2021/04/28 05:01:18;;;;;;;11.60;5.57;;;6.00;51.90;;;;;;3536010;40;20077;-65
2021/04/28 05:03:44;;;;;;;15.10;6.03;;;6.00;51.90;;;;;;3535519;40;20093;-64
2021/04/28 05:06:10;;;;;;;10.35;4.78;;;6.10;51.90;;;;;;3536284;40;20027;-65
2021/04/28 05:08:36;;;;;;;13.50;5.20;;;6.30;51.70;;;;;;3537885;40;20070;-65
2021/04/28 05:11:02;;;;;;;13.85;5.57;;;6.40;51.10;;;;;;3544479;40;20060;-65
2021/04/28 05:13:28;;;;;;;15.23;5.75;;;6.60;51.20;;;;;;3536826;40;20620;-65
2021/04/28 05:15:54;;;;;;;12.05;5.70;;;6.80;50.40;;;;;;3532371;40;20042;-65
2021/04/28 05:18:19;;;;;;;10.52;6.00;;;7.00;49.90;;;;;;3536209;40;20034;-65
2021/04/28 05:20:45;;;;;;;13.13;5.68;;;7.30;48.90;;;;;;3546742;40;20034;-65
2021/04/28 05:23:11;;;;;;;11.80;5.63;;;7.50;47.80;;;;;;3536971;40;20027;-65
2021/04/28 05:25:37;;;;;;;12.23;5.55;;;7.90;47.80;;;;;;3538150;40;20042;-64
2021/04/28 05:28:03;;;;;;;11.55;5.80;;;8.20;46.60;;;;;;3541014;40;20120;-65
2021/04/28 05:30:29;;;;;;;13.00;6.00;;;8.60;46.10;;;;;;3540541;40;20031;-65
2021/04/28 05:32:54;;;;;;;13.32;6.25;;;9.10;45.30;;;;;;3540065;40;20084;-65
2021/04/28 05:35:20;;;;;;;11.85;5.43;;;9.40;43.70;;;;;;3553212;40;20078;-65
2021/04/28 05:37:46;;;;;;;10.60;6.10;;;9.60;43.40;;;;;;3539836;40;20768;-64
2021/04/28 05:40:13;;;;;;;9.90;5.47;;;9.70;42.90;;;;;;3534169;40;20046;-68
2021/04/28 05:42:39;;;;;;;10.35;5.60;;;9.80;42.70;;;;;;3534002;40;20041;-65
2021/04/28 05:45:07;;;;;;;11.80;5.85;;;10.10;42.70;;;;;;3539235;40;20040;-65
2021/04/28 05:47:33;;;;;;;13.55;6.22;;;10.40;41.90;;;;;;3552182;40;20061;-65
2021/04/28 05:49:59;;;;;;;9.13;5.82;;;10.80;41.10;;;;;;3532494;40;20026;-65
2021/04/28 05:52:25;;;;;;;11.65;5.82;;;10.80;41.20;;;;;;3547967;40;20097;-65
2021/04/28 05:54:51;;;;;;;14.20;6.32;;;11.10;41.00;;;;;;3550110;40;20038;-65
2021/04/28 05:57:17;;;;;;;10.88;6.25;;;11.40;40.40;;;;;;3540587;40;20049;-65
2021/04/28 05:59:44;;;;;;;15.13;6.43;;;11.90;39.80;;;;;;3539223;40;20027;-65
2021/04/28 06:02:12;;;;;;;15.48;6.72;;;12.40;38.30;;;;;;3531438;40;20113;-65
2021/04/28 06:04:38;;;;;;;19.13;6.43;;;12.80;37.20;;;;;;3539726;40;20039;-65
2021/04/28 06:07:05;;;;;;;14.10;6.57;;;12.70;36.60;;;;;;3541606;40;20083;-65
2021/04/28 06:09:31;;;;;;;12.63;6.25;;;12.30;37.20;;;;;;3538498;40;20098;-65
2021/04/28 06:11:58;;;;;;;11.65;5.88;;;11.90;38.30;;;;;;3541641;40;20045;-64
2021/04/28 06:14:24;;;;;;;23.08;6.70;;;11.80;39.40;;;;;;3542264;40;20031;-65
2021/04/28 06:16:50;;;;;;;14.57;6.85;;;11.60;39.50;;;;;;3538798;40;20031;-65
2021/04/28 06:19:16;;;;;;;12.93;6.88;;;11.40;39.50;;;;;;3541409;40;20034;-65
2021/04/28 06:21:42;;;;;;;12.43;6.32;;;11.40;39.70;;;;;;3557338;40;20038;-65
2021/04/28 06:24:08;;;;;;;14.88;6.00;;;11.40;40.40;;;;;;3540663;40;20389;-65
2021/04/28 06:26:35;;;;;;;13.65;6.93;;;11.50;40.20;;;;;;3536330;40;20027;-65
2021/04/28 06:29:01;;;;;;;11.57;5.95;;;11.20;39.80;;;;;;3535783;40;20039;-65
2021/04/28 06:31:27;;;;;;;15.68;6.82;;;11.30;40.60;;;;;;3536588;40;20359;-64
2021/04/28 06:33:53;;;;;;;12.63;6.00;;;11.00;40.60;;;;;;3548406;40;20088;-64
2021/04/28 06:36:18;;;;;;;13.32;6.97;;;10.90;41.00;;;;;;3534267;40;20078;-65
2021/04/28 06:38:44;;;;;;;12.73;6.32;;;11.00;41.50;;;;;;3538709;40;20124;-65
2021/04/28 06:41:10;;;;;;;12.15;6.57;;;11.00;41.60;;;;;;3541166;40;20106;-65
2021/04/28 06:43:36;;;;;;;13.40;6.65;;;11.20;41.30;;;;;;3542743;40;20403;-64
2021/04/28 06:46:02;;;;;;;14.75;7.13;;;11.60;40.50;;;;;;3541277;40;20034;-65
2021/04/28 06:48:28;;;;;;;12.48;6.57;;;12.00;40.40;;;;;;3538769;40;20396;-65
2021/04/28 06:50:54;;;;;;;12.25;6.32;;;12.30;39.10;;;;;;3536213;40;20050;-65
2021/04/28 06:53:22;;;;;;;11.60;6.13;;;12.90;37.90;;;;;;3539942;40;20054;-65
2021/04/28 06:55:48;;;;;;;13.35;6.65;;;13.10;37.90;;;;;;3533741;40;20030;-66
2021/04/28 06:58:13;;;;;;;13.75;7.07;;;13.10;37.20;;;;;;3536134;40;20312;-66
2021/04/28 07:00:39;;;;;;;13.88;7.22;;;13.20;37.50;;;;;;3528136;40;20053;-66
2021/04/28 07:03:05;;;;;;;10.55;6.88;;;13.40;36.00;;;;;;3556144;40;20120;-64
2021/04/28 07:05:31;;;;;;;10.80;6.03;;;13.30;36.30;;;;;;3541357;40;20181;-68
2021/04/28 07:07:56;;;;;;;17.92;7.03;;;13.10;36.60;;;;;;3554773;40;20022;-66
2021/04/28 07:10:22;;;;;;;17.50;6.18;;;13.20;37.50;;;;;;3538516;40;20074;-66
2021/04/28 07:12:49;;;;;;;16.38;6.57;;;13.30;37.70;;;;;;3554611;40;20678;-66
2021/04/28 07:15:14;;;;;;;13.77;6.88;;;13.40;37.20;;;;;;3534824;40;20590;-65
2021/04/28 07:17:44;;;;;;;11.70;6.53;;;13.40;37.20;;;;;;3549104;40;20039;-65
2021/04/28 07:20:10;;;;;;;12.45;6.28;;;13.40;37.00;;;;;;3539196;40;20610;-66
2021/04/28 07:22:36;;;;;;;13.40;6.70;;;13.20;36.70;;;;;;3532129;40;20523;-65
2021/04/28 07:25:03;;;;;;;12.50;7.28;;;13.40;37.40;;;;;;3540445;40;20033;-66
2021/04/28 07:27:28;;;;;;;21.45;6.85;;;13.80;37.60;;;;;;3556652;40;20033;-65
2021/04/28 07:29:54;;;;;;;12.00;7.15;;;14.10;36.80;;;;;;3538966;40;20070;-65
2021/04/28 07:32:20;;;;;;;18.13;7.28;;;14.10;35.70;;;;;;3537869;40;20407;-67
2021/04/28 07:34:45;;;;;;;11.60;6.57;;;14.00;35.80;;;;;;3552686;40;20039;-65
2021/04/28 07:37:11;;;;;;;12.90;6.95;;;14.30;36.20;;;;;;3536131;40;20023;-65
2021/04/28 07:39:39;;;;;;;16.67;7.13;;;14.80;35.30;;;;;;3539681;40;20030;-67
2021/04/28 07:42:05;;;;;;;12.13;7.18;;;15.70;33.80;;;;;;3553933;40;20043;-65
2021/04/28 07:44:31;;;;;;;17.65;7.28;;;16.30;33.30;;;;;;3543597;40;20174;-70
2021/04/28 07:46:58;;;;;;;17.63;7.93;;;16.40;32.20;;;;;;3532275;40;20051;-68
2021/04/28 07:49:24;;;;;;;15.95;7.32;;;16.50;32.90;;;;;;3533699;40;20045;-66
2021/04/28 07:51:50;;;;;;;12.38;6.80;;;16.40;32.80;;;;;;3536998;40;20379;-66
2021/04/28 07:54:15;;;;;;;15.38;7.63;;;15.80;32.80;;;;;;3548282;40;20042;-66
2021/04/28 07:56:41;;;;;;;12.00;6.80;;;15.70;33.50;;;;;;3537802;40;20043;-66
2021/04/28 07:59:07;;;;;;;12.88;7.00;;;16.10;33.20;;;;;;3531752;40;20337;-66
2021/04/28 08:01:32;;;;;;;14.00;7.47;;;16.40;33.50;;;;;;3540054;40;20470;-66
2021/04/28 08:03:59;;;;;;;14.48;7.43;;;16.40;32.40;;;;;;3538031;40;20589;-66
2021/04/28 08:06:25;;;;;;;11.05;6.72;;;16.40;33.10;;;;;;3536036;40;20049;-66
2021/04/28 08:08:51;;;;;;;14.10;6.68;;;16.20;32.50;;;;;;3538047;40;20327;-66
2021/04/28 08:11:17;;;;;;;13.65;6.55;;;16.30;33.30;;;;;;3537711;40;20042;-63
2021/04/28 08:13:42;;;;;;;15.38;7.80;;;16.30;34.00;;;;;;3536483;40;20038;-67
2021/04/28 08:16:08;;;;;;;12.70;7.18;;;16.20;33.20;;;;;;3540065;40;20031;-65
2021/04/28 08:18:34;;;;;;;14.95;6.78;;;16.40;32.90;;;;;;3555236;40;20295;-66
2021/04/28 08:21:00;;;;;;;12.93;7.13;;;16.50;32.70;;;;;;3539897;40;20035;-66
2021/04/28 08:23:29;;;;;;;9.95;6.82;;;16.60;33.10;;;;;;3527047;40;20396;-66
2021/04/28 08:26:01;;;;;;;14.27;7.45;;;16.80;32.30;;;;;;3536931;40;20041;-65
2021/04/28 08:28:27;;;;;;;14.55;7.55;;;16.80;32.50;;;;;;3540263;40;20133;-68
2021/04/28 08:30:53;;;;;;;16.60;6.97;;;16.40;32.10;;;;;;3536247;40;20704;-66
2021/04/28 08:33:19;;;;;;;11.35;6.57;;;16.50;32.40;;;;;;3538255;40;20034;-66
2021/04/28 08:35:44;;;;;;;12.38;6.85;;;16.80;32.60;;;;;;3536884;40;20121;-67
2021/04/28 08:38:10;;;;;;;10.00;6.38;;;16.90;31.20;;;;;;3537315;40;20120;-66
2021/04/28 08:40:36;;;;;;;13.18;7.43;;;17.30;31.90;;;;;;3557499;40;20762;-68
2021/04/28 08:43:03;;;;;;;17.65;7.72;;;17.50;31.70;;;;;;3540069;40;20745;-70
2021/04/28 08:45:29;;;;;;;15.05;7.15;;;17.60;30.40;;;;;;3539151;40;20051;-66
2021/04/28 08:47:55;;;;;;;13.00;7.57;;;18.00;30.10;;;;;;3540687;40;20031;-66
2021/04/28 08:50:21;;;;;;;12.65;6.68;;;17.90;29.60;;;;;;3525734;40;20468;-66
2021/04/28 08:52:51;;;;;;;16.58;7.53;;;18.00;29.00;;;;;;3544186;40;20082;-66
2021/04/28 08:55:17;;;;;;;15.65;7.25;;;17.90;29.30;;;;;;3542456;40;20057;-66
2021/04/28 08:57:43;;;;;;;13.68;6.63;;;18.00;29.50;;;;;;3540373;40;20450;-67
2021/04/28 09:00:09;;;;;;;12.95;6.95;;;18.00;29.70;;;;;;3535671;40;20309;-65
2021/04/28 09:02:49;;;;;;;10.90;7.32;;;18.20;30.00;;;;;;3531171;40;20389;-65
2021/04/28 09:05:15;;;;;;;16.15;7.10;;;18.20;30.00;;;;;;3539310;40;20054;-66
2021/04/28 09:07:43;;;;;;;10.30;7.13;;;18.20;30.20;;;;;;3552950;40;20822;-65
2021/04/28 09:10:15;;;;;;;13.32;7.38;;;18.50;29.90;;;;;;3534847;40;20039;-66
2021/04/28 09:12:49;;;;;;;12.32;7.18;;;18.80;29.00;;;;;;3531692;40;20049;-66
2021/04/28 09:15:28;;;;;;;12.65;7.68;;;18.90;29.00;;;;;;3539066;40;20046;-66
2021/04/28 09:17:54;;;;;;;13.77;7.50;;;18.80;28.80;;;;;;3538567;40;20027;-66
2021/04/28 09:20:45;;;;;;;13.23;7.28;;;18.70;29.30;;;;;;3537374;40;20114;-66
2021/04/28 09:23:35;;;;;;;15.00;7.13;;;19.00;29.80;;;;;;3540150;40;20539;-66
2021/04/28 09:26:19;;;;;;;12.60;6.85;;;19.50;30.10;;;;;;3537730;40;20046;-68
2021/04/28 09:29:08;;;;;;;11.82;7.40;;;20.00;29.30;;;;;;3543895;40;20042;-62
2021/04/28 09:31:34;;;;;;;13.68;7.63;;;20.20;28.30;;;;;;3536445;40;20053;-62
2021/04/28 09:34:00;;;;;;;13.05;7.60;;;20.20;27.80;;;;;;3537530;40;20030;-63
2021/04/28 09:36:38;;;;;;;14.65;7.85;;;19.80;28.10;;;;;;3537232;40;20602;-62
2021/04/28 09:39:17;;;;;;;12.95;7.90;;;19.40;28.10;;;;;;3549614;40;20044;-62
2021/04/28 09:41:45;;;;;;;13.02;7.82;;;19.10;29.70;;;;;;3534992;40;20116;-63
2021/04/28 09:44:17;;;;;;;16.20;8.85;;;19.00;29.70;;;;;;3545550;40;20038;-63
2021/04/28 09:47:11;;;;;;;15.52;7.68;;;18.60;29.00;;;;;;3537988;40;20037;-63
2021/04/28 09:49:58;;;;;;;13.07;7.45;;;18.50;30.00;;;;;;3532082;40;20050;-63
2021/04/28 09:52:41;;;;;;;15.32;8.40;;;18.80;31.00;;;;;;3541448;40;20354;-63
2021/04/28 09:55:09;;;;;;;17.50;8.13;;;19.20;29.30;;;;;;3537847;40;20034;-63
2021/04/28 09:57:35;;;;;;;15.93;8.55;;;19.20;28.60;;;;;;3535917;40;20067;-65
2021/04/28 10:00:01;;;;;;;15.68;8.45;;;19.70;29.20;;;;;;3536769;40;20042;-62
2021/04/28 10:02:31;;;;;;;15.85;8.35;;;20.00;28.50;;;;;;3533113;40;20700;-63
2021/04/28 10:05:14;;;;;;;15.52;8.60;;;20.20;29.10;;;;;;3530587;40;20035;-63
2021/04/28 10:07:40;;;;;;;14.02;8.55;;;20.30;28.20;;;;;;3536621;40;20041;-63
2021/04/28 10:10:06;;;;;;;14.25;9.07;;;20.10;28.40;;;;;;3535880;40;20031;-63
2021/04/28 10:12:33;;;;;;;14.98;9.30;;;20.10;29.10;;;;;;3532842;40;20050;-62
2021/04/28 10:14:59;;;;;;;20.40;10.23;;;20.10;28.60;;;;;;3529881;40;20591;-65
2021/04/28 10:17:27;;;;;;;19.77;9.45;;;19.90;28.40;;;;;;3536698;40;20140;-67
2021/04/28 10:19:56;;;;;;;20.75;8.77;;;19.50;29.00;;;;;;3535075;40;20031;-66
2021/04/28 10:22:23;;;;;;;14.02;8.32;;;19.60;30.20;;;;;;3535485;40;20785;-66
2021/04/28 10:24:51;;;;;;;17.02;10.10;;;19.50;30.00;;;;;;3534970;40;20361;-66
2021/04/28 10:27:18;;;;;;;17.05;9.52;;;19.50;29.60;;;;;;3540442;40;20102;-66
2021/04/28 10:29:46;;;;;;;32.55;9.35;;;19.60;30.90;;;;;;3532910;40;20776;-66
2021/04/28 10:32:16;;;;;;;17.13;9.18;;;19.90;30.50;;;;;;3535785;40;20136;-66
2021/04/28 10:34:55;;;;;;;17.38;8.52;;;19.90;29.90;;;;;;3535388;40;20030;-66
2021/04/28 10:37:25;;;;;;;18.42;9.18;;;19.80;30.60;;;;;;3534302;40;20041;-66
2021/04/28 10:39:51;;;;;;;15.50;9.05;;;20.00;30.50;;;;;;3535850;40;20719;-67
2021/04/28 10:42:28;;;;;;;18.58;9.55;;;19.80;30.90;;;;;;3539614;40;20037;-67
2021/04/28 10:44:54;;;;;;;13.35;8.13;;;19.60;31.40;;;;;;3541800;40;20066;-68
2021/04/28 10:47:33;;;;;;;13.05;8.18;;;19.50;31.90;;;;;;3528528;40;20031;-67
2021/04/28 10:50:13;;;;;;;16.85;8.60;;;19.30;31.90;;;;;;3548213;40;20135;-67
2021/04/28 10:52:53;;;;;;;10.57;7.82;;;18.70;31.90;;;;;;3549276;40;20394;-69
2021/04/28 10:55:40;;;;;;;15.88;9.35;;;18.50;32.90;;;;;;3541992;40;20057;-69
2021/04/28 10:58:25;;;;;;;19.58;9.35;;;19.10;32.70;;;;;;3538315;40;20042;-69
2021/04/28 11:01:12;;;;;;;14.57;7.97;;;19.80;31.10;;;;;;3529230;40;20038;-68
2021/04/28 11:03:46;;;;;;;14.85;8.50;;;19.90;30.00;;;;;;3530650;40;20033;-69
2021/04/28 11:06:20;;;;;;;13.60;7.82;;;19.60;30.80;;;;;;3533913;40;20510;-69
2021/04/28 11:08:49;;;;;;;14.95;7.93;;;19.20;30.70;;;;;;3540106;40;20074;-67
2021/04/28 11:11:33;;;;;;;13.90;8.13;;;18.80;32.00;;;;;;3546890;40;20038;-74
2021/04/28 11:14:14;;;;;;;15.50;7.82;;;18.80;32.90;;;;;;3534726;40;20119;-68
2021/04/28 11:16:52;;;;;;;13.68;7.43;;;18.80;32.10;;;;;;3538204;40;20046;-68
2021/04/28 11:19:20;;;;;;;12.38;7.35;;;18.80;33.10;;;;;;3527602;40;20031;-68
2021/04/28 11:22:06;;;;;;;13.50;7.18;;;19.00;32.90;;;;;;3537347;40;20497;-68
2021/04/28 11:24:51;;;;;;;17.63;8.52;;;19.10;32.50;;;;;;3536384;40;20051;-67
2021/04/28 11:27:45;;;;;;;15.05;7.68;;;19.20;30.90;;;;;;3532802;40;20538;-67
2021/04/28 11:30:24;;;;;;;16.00;7.85;;;18.90;31.50;;;;;;3535798;40;20041;-68
2021/04/28 11:33:08;;;;;;;12.15;6.45;;;19.10;31.40;;;;;;3535899;40;20116;-69
2021/04/28 11:35:35;;;;;;;10.50;6.80;;;19.10;32.10;;;;;;3541099;40;20050;-68
2021/04/28 11:38:09;;;;;;;12.48;6.88;;;19.20;32.20;;;;;;3533906;40;20698;-69
2021/04/28 11:40:53;;;;;;;12.15;6.68;;;19.20;30.90;;;;;;3530652;40;20046;-68
2021/04/28 11:43:21;;;;;;;12.73;8.52;;;19.30;31.00;;;;;;3521657;40;20022;-68
2021/04/28 11:45:46;;;;;;;13.73;7.85;;;19.20;31.20;;;;;;3532732;40;20031;-68
2021/04/28 11:48:21;;;;;;;11.73;7.53;;;19.20;31.70;;;;;;3536696;40;20038;-68
2021/04/28 11:50:51;;;;;;;13.85;7.15;;;19.10;31.70;;;;;;3546419;40;20046;-69
2021/04/28 11:53:17;;;;;;;11.95;7.65;;;19.10;31.20;;;;;;3530030;40;20023;-67
2021/04/28 11:55:43;;;;;;;9.43;5.82;;;19.10;31.20;;;;;;3532735;40;20023;-68
2021/04/28 11:58:22;;;;;;;10.00;6.60;;;19.20;31.50;;;;;;3537223;40;20041;-67
2021/04/28 12:00:49;;;;;;;11.52;6.90;;;19.40;31.60;;;;;;3538788;40;20436;-69
2021/04/28 12:03:15;;;;;;;13.10;7.55;;;19.20;30.70;;;;;;3552511;40;20137;-68
2021/04/28 12:05:40;;;;;;;12.73;7.70;;;19.10;30.10;;;;;;3551517;40;20038;-68
2021/04/28 12:08:07;;;;;;;11.85;7.53;;;18.80;31.30;;;;;;3536294;40;20037;-68
2021/04/28 12:10:33;;;;;;;13.32;7.80;;;18.60;31.90;;;;;;3542837;40;20046;-68
2021/04/28 12:12:59;;;;;;;9.85;6.00;;;18.50;31.70;;;;;;3548761;40;20047;-68
2021/04/28 12:15:24;;;;;;;8.93;5.65;;;18.70;31.60;;;;;;3535777;40;20038;-68
2021/04/28 12:17:53;;;;;;;9.98;5.28;;;18.60;30.80;;;;;;3531660;40;20756;-67
2021/04/28 12:20:22;;;;;;;7.32;5.30;;;18.60;31.30;;;;;;3533115;40;20098;-68
2021/04/28 12:22:48;;;;;;;9.32;5.53;;;18.70;31.30;;;;;;3534858;40;20042;-68
2021/04/28 12:25:16;;;;;;;8.02;5.00;;;18.80;30.30;;;;;;3535046;40;20669;-68
2021/04/28 12:27:44;;;;;;;7.45;5.03;;;18.80;30.80;;;;;;3537672;40;20043;-68
2021/04/28 12:30:11;;;;;;;8.65;4.93;;;18.80;30.60;;;;;;3532989;40;20031;-70
2021/04/28 12:32:44;;;;;;;10.32;5.50;;;18.90;30.40;;;;;;3545809;40;20156;-69
2021/04/28 12:35:28;;;;;;;6.75;5.18;;;18.70;31.40;;;;;;3529546;40;20071;-69
2021/04/28 12:38:11;;;;;;;8.68;4.95;;;18.80;31.50;;;;;;3543838;40;20108;-69
2021/04/28 12:40:42;;;;;;;7.75;5.88;;;18.90;31.30;;;;;;3548968;40;20045;-63
2021/04/28 12:43:10;;;;;;;8.52;4.53;;;18.90;30.80;;;;;;3531116;40;20034;-64
2021/04/28 12:45:37;;;;;;;11.63;5.68;;;19.00;31.40;;;;;;3533824;40;20034;-64
2021/04/28 12:48:07;;;;;;;7.80;5.35;;;18.90;31.00;;;;;;3535244;40;20181;-65
2021/04/28 12:50:35;;;;;;;8.25;6.07;;;19.00;31.30;;;;;;3539413;40;20049;-65
2021/04/28 12:53:10;;;;;;;10.27;6.10;;;18.70;31.30;;;;;;3542959;40;20164;-66
2021/04/28 12:55:46;;;;;;;10.13;6.60;;;18.50;31.10;;;;;;3533790;40;20338;-66
2021/04/28 12:58:18;;;;;;;17.27;5.88;;;18.40;31.30;;;;;;3535441;40;20305;-66
2021/04/28 13:00:46;;;;;;;11.52;5.80;;;18.50;32.50;;;;;;3531199;40;20046;-63